Time;durP1;ratioP1;P1;durP2;ratioP2;P2;SDS_P1;SDS_P2;PMS_P1;PMS_P2;Temp;Humidity;BMP_temperature;BMP_pressure;BME280_temperature;BME280_humidity;BME280_pressure;Samples;Min_cycle;Max_cycle;Signal;HPM_P1;HPM_P2
2022/08/23 14:34:28;;;;;;;;;;;;;;;27.41;38.99;96734.63;4235262;27;10385;-64
2022/08/23 14:36:31;;;;;;;;;;;;;;;27.68;38.69;96726.50;4228276;28;5789;-64
2022/08/23 14:38:34;;;;;;;;;;;;;;;27.91;37.97;96730.09;4231396;27;5692;-64
2022/08/23 14:40:37;;;;;;;;;;;;;;;28.01;37.78;96727.13;4230572;28;5759;-64
2022/08/23 14:42:40;;;;;;;;;;;;;;;28.11;37.59;96737.78;4230678;27;5764;-64
2022/08/23 14:44:43;;;;;;;;;;;;;;;28.24;37.46;96725.25;4231751;27;5612;-64
2022/08/23 14:46:46;;;;;;;;;;;;;;;28.32;37.22;96721.81;4236373;27;5646;-65
2022/08/23 14:48:49;;;;;;;;;;;;;;;28.34;37.29;96722.31;4244471;27;5099;-64
2022/08/23 14:50:54;;;;;;;;;;;;;;;28.34;37.13;96730.47;4243545;27;5697;-63
2022/08/23 14:52:57;;;;;;;;;;;;;;;28.41;37.18;96730.03;4245956;27;5586;-63
2022/08/23 14:55:00;;;;;;;;;;;;;;;28.53;36.70;96734.91;4235029;27;5692;-63
2022/08/23 14:57:03;;;;;;;;;;;;;;;28.60;36.40;96732.56;4232992;27;5818;-63
2022/08/23 14:59:06;;;;;;;;;;;;;;;28.67;36.29;96728.28;4232749;27;5777;-64
2022/08/23 15:01:09;;;;;;;;;;;;;;;28.69;36.08;96726.06;4225699;28;5652;-63
2022/08/23 15:03:18;;;;;;;;;;;;;;;28.69;35.88;96719.81;4244247;27;5670;-62
2022/08/23 15:05:21;;;;;;;;;;;;;;;28.71;35.99;96739.34;4239519;27;5791;-63
2022/08/23 15:07:26;;;;;;;;;;;;;;;28.74;35.72;96735.19;4236488;27;5683;-62
2022/08/23 15:09:28;;;;;;;;;;;;;;;28.79;35.79;96733.16;4245771;27;6286;-64
2022/08/23 15:11:31;;;;;;;;;;;;;;;28.78;35.43;96737.00;4246026;27;5601;-64
2022/08/23 15:13:54;;;;;;;;;;;;;;;28.78;35.35;96728.84;4245426;27;5641;-63
2022/08/23 15:16:03;;;;;;;;;;;;;;;28.80;35.04;96740.22;4245979;27;5605;-64
2022/08/23 15:18:08;;;;;;;;;;;;;;;28.83;35.11;96742.28;4245674;27;5708;-64
2022/08/23 15:20:11;;;;;;;;;;;;;;;28.86;34.84;96741.66;4233729;27;5604;-64
2022/08/23 15:22:14;;;;;;;;;;;;;;;28.86;34.68;96733.50;4245624;27;5610;-63
2022/08/23 15:24:25;;;;;;;;;;;;;;;28.89;34.60;96743.00;4245511;27;5645;-64
2022/08/23 15:26:30;;;;;;;;;;;;;;;28.85;34.49;96739.25;4243596;27;5154;-64
2022/08/23 15:28:34;;;;;;;;;;;;;;;28.86;34.22;96732.69;4229986;27;5616;-64
2022/08/23 15:30:37;;;;;;;;;;;;;;;28.90;34.10;96729.09;4231420;27;5648;-64
2022/08/23 15:32:41;;;;;;;;;;;;;;;28.90;33.98;96739.19;4234690;27;5733;-64
2022/08/23 15:34:58;;;;;;;;;;;;;;;28.90;33.90;96737.25;4227961;27;6894;-64
2022/08/23 15:37:01;;;;;;;;;;;;;;;28.95;33.56;96739.81;4222052;28;5730;-64
2022/08/23 15:39:04;;;;;;;;;;;;;;;28.94;33.59;96738.22;4221766;28;5625;-64
2022/08/23 15:41:08;;;;;;;;;;;;;;;28.98;33.17;96738.41;4223380;28;5715;-64
2022/08/23 15:43:12;;;;;;;;;;;;;;;29.01;33.33;96732.34;4223703;28;5615;-64
2022/08/23 15:45:15;;;;;;;;;;;;;;;28.99;33.13;96745.44;4220327;28;5096;-64
2022/08/23 15:47:21;;;;;;;;;;;;;;;28.97;33.07;96731.34;4234109;28;5605;-64
2022/08/23 15:49:28;;;;;;;;;;;;;;;28.96;32.94;96735.19;4234140;28;5589;-64
2022/08/23 15:51:37;;;;;;;;;;;;;;;28.99;33.08;96729.13;4233714;28;6407;-64
2022/08/23 15:53:40;;;;;;;;;;;;;;;29.01;32.98;96723.38;4217647;28;5704;-64
2022/08/23 15:55:44;;;;;;;;;;;;;;;29.03;32.49;96724.66;4221315;28;5677;-64
2022/08/23 15:57:52;;;;;;;;;;;;;;;29.05;32.58;96721.63;4229007;28;5795;-65
2022/08/23 15:59:55;;;;;;;;;;;;;;;29.03;32.53;96732.03;4222038;28;5612;-64
2022/08/23 16:01:58;;;;;;;;;;;;;;;29.01;32.25;96718.75;4215497;28;5731;-64
2022/08/23 16:04:01;;;;;;;;;;;;;;;29.02;32.40;96723.06;4233747;28;5586;-64
2022/08/23 16:06:05;;;;;;;;;;;;;;;29.03;32.18;96729.31;4233700;28;5606;-64
2022/08/23 16:08:12;;;;;;;;;;;;;;;29.03;32.04;96724.66;4229749;28;5637;-64
2022/08/23 16:10:15;;;;;;;;;;;;;;;29.03;32.08;96732.84;4224391;28;5803;-64
2022/08/23 16:12:18;;;;;;;;;;;;;;;29.02;32.05;96730.44;4222660;28;5677;-64
2022/08/23 16:14:22;;;;;;;;;;;;;;;29.01;31.70;96731.53;4218699;28;5673;-64
2022/08/23 16:16:28;;;;;;;;;;;;;;;29.03;31.51;96734.75;4224354;28;7447;-65
2022/08/23 16:18:31;;;;;;;;;;;;;;;29.04;31.57;96725.47;4224925;28;5797;-65
2022/08/23 16:20:34;;;;;;;;;;;;;;;29.01;31.56;96720.66;4233822;28;5677;-65
2022/08/23 16:22:37;;;;;;;;;;;;;;;28.99;31.47;96723.66;4233454;28;5823;-64
2022/08/23 16:24:40;;;;;;;;;;;;;;;29.01;31.51;96723.38;4232642;28;7679;-65
2022/08/23 16:26:44;;;;;;;;;;;;;;;29.02;31.28;96716.81;4216362;28;5627;-64
2022/08/23 16:28:50;;;;;;;;;;;;;;;29.02;30.84;96733.94;4229353;28;5767;-64
2022/08/23 16:30:54;;;;;;;;;;;;;;;29.04;30.84;96725.47;4218185;28;5719;-63
2022/08/23 16:32:58;;;;;;;;;;;;;;;29.02;30.97;96724.97;4221095;27;5600;-63
2022/08/23 16:35:00;;;;;;;;;;;;;;;28.99;30.90;96724.50;4221243;28;5808;-63
2022/08/23 16:37:08;;;;;;;;;;;;;;;28.98;30.68;96711.19;4223757;28;5645;-64
2022/08/23 16:39:12;;;;;;;;;;;;;;;28.95;30.53;96712.63;4217841;28;5609;-63
2022/08/23 16:41:16;;;;;;;;;;;;;;;28.99;30.61;96724.50;4237147;27;5730;-63
2022/08/23 16:43:18;;;;;;;;;;;;;;;29.03;30.49;96718.44;4246456;27;5819;-63
2022/08/23 16:45:22;;;;;;;;;;;;;;;29.06;30.29;96717.78;4233836;28;5605;-62
2022/08/23 16:47:30;;;;;;;;;;;;;;;29.06;30.43;96721.31;4232443;27;5095;-62
2022/08/23 16:49:33;;;;;;;;;;;;;;;29.06;30.54;96721.31;4220988;28;5736;-64
2022/08/23 16:51:36;;;;;;;;;;;;;;;29.03;30.47;96723.88;4231063;28;5836;-61
2022/08/23 16:53:39;;;;;;;;;;;;;;;29.00;30.48;96730.75;4217416;28;5776;-62
2022/08/23 16:55:42;;;;;;;;;;;;;;;29.00;30.47;96719.84;4217660;28;5673;-63
2022/08/23 16:57:46;;;;;;;;;;;;;;;29.02;30.54;96722.25;4217953;28;6643;-63
2022/08/23 16:59:50;;;;;;;;;;;;;;;28.99;30.56;96729.13;4226880;28;5625;-64
2022/08/23 17:01:55;;;;;;;;;;;;;;;28.96;30.37;96721.59;4237064;27;5587;-62
2022/08/23 17:04:00;;;;;;;;;;;;;;;28.95;30.37;96720.78;4223099;28;5623;-65
2022/08/23 17:06:03;;;;;;;;;;;;;;;28.95;30.46;96728.13;4217567;28;5621;-63
2022/08/23 17:08:06;;;;;;;;;;;;;;;28.96;30.49;96727.03;4233324;28;5606;-63
2022/08/23 17:10:12;;;;;;;;;;;;;;;28.93;30.46;96728.47;4232312;28;5689;-63
2022/08/23 17:12:16;;;;;;;;;;;;;;;28.91;30.51;96736.13;4234289;28;5637;-63
2022/08/23 17:14:19;;;;;;;;;;;;;;;28.88;30.66;96728.59;4241474;27;5594;-64
2022/08/23 17:16:23;;;;;;;;;;;;;;;28.87;30.30;96723.41;4234120;27;5816;-64
2022/08/23 17:18:26;;;;;;;;;;;;;;;28.84;30.61;96730.28;4244804;27;5680;-64
2022/08/23 17:20:33;;;;;;;;;;;;;;;28.83;30.61;96725.97;4215002;28;5624;-63
2022/08/23 17:22:36;;;;;;;;;;;;;;;28.78;30.60;96726.13;4220739;28;5696;-64
2022/08/23 17:24:39;;;;;;;;;;;;;;;28.73;30.62;96728.94;4232479;28;5689;-64
2022/08/23 17:26:42;;;;;;;;;;;;;;;28.69;30.79;96730.69;4221821;28;7219;-63
2022/08/23 17:28:45;;;;;;;;;;;;;;;28.65;30.67;96735.97;4217338;28;5720;-64
2022/08/23 17:30:48;;;;;;;;;;;;;;;28.63;30.62;96727.28;4216986;28;5694;-64
2022/08/23 17:32:52;;;;;;;;;;;;;;;28.62;30.50;96741.19;4222293;28;5609;-65
2022/08/23 17:34:55;;;;;;;;;;;;;;;28.60;30.61;96732.56;4223024;28;5717;-64
2022/08/23 17:37:00;;;;;;;;;;;;;;;28.58;30.50;96732.88;4217431;28;5665;-63
2022/08/23 17:39:06;;;;;;;;;;;;;;;28.55;30.53;96735.41;4221995;28;5741;-62
2022/08/23 17:41:09;;;;;;;;;;;;;;;28.52;30.64;96741.44;4228356;27;5797;-61
2022/08/23 17:43:12;;;;;;;;;;;;;;;28.51;30.35;96742.56;4229095;28;5628;-65
2022/08/23 17:45:15;;;;;;;;;;;;;;;28.49;30.56;96748.31;4233989;28;5669;-65
2022/08/23 17:47:18;;;;;;;;;;;;;;;28.48;30.55;96745.91;4208594;28;5690;-63
2022/08/23 17:49:21;;;;;;;;;;;;;;;28.46;30.38;96748.94;4225646;28;5589;-65
2022/08/23 17:51:24;;;;;;;;;;;;;;;28.42;30.47;96751.47;4230711;28;5590;-62
2022/08/23 17:53:28;;;;;;;;;;;;;;;28.40;30.64;96753.69;4244462;27;5586;-63
2022/08/23 17:55:34;;;;;;;;;;;;;;;28.36;30.54;96750.00;4248526;27;5579;-62
2022/08/23 17:57:39;;;;;;;;;;;;;;;28.35;30.50;96753.81;4242504;27;5625;-63
2022/08/23 17:59:42;;;;;;;;;;;;;;;28.33;30.08;96761.50;4225192;27;5740;-62
2022/08/23 18:01:45;;;;;;;;;;;;;;;28.31;30.57;96755.53;4235000;27;5770;-64
2022/08/23 18:03:48;;;;;;;;;;;;;;;28.29;30.49;96762.41;4237388;27;5868;-62
2022/08/23 18:05:51;;;;;;;;;;;;;;;28.24;30.49;96751.63;4236261;27;5708;-62
2022/08/23 18:07:54;;;;;;;;;;;;;;;28.25;30.44;96758.66;4232699;28;5606;-63
2022/08/23 18:09:59;;;;;;;;;;;;;;;28.23;30.48;96760.88;4231998;28;5589;-63
2022/08/23 18:12:02;;;;;;;;;;;;;;;28.21;30.50;96766.63;4233220;28;5605;-63
2022/08/23 18:14:05;;;;;;;;;;;;;;;28.17;30.49;96768.34;4221497;28;5674;-63
2022/08/23 18:16:08;;;;;;;;;;;;;;;28.15;30.46;96770.56;4216036;28;5788;-63
2022/08/23 18:18:11;;;;;;;;;;;;;;;28.13;30.43;96772.78;4221237;28;5594;-63
2022/08/23 18:20:14;;;;;;;;;;;;;;;28.12;30.49;96768.47;4215453;28;5613;-63
2022/08/23 18:22:18;;;;;;;;;;;;;;;28.09;30.32;96767.19;4215596;28;5704;-63
2022/08/23 18:24:23;;;;;;;;;;;;;;;28.09;30.43;96777.25;4220135;28;5582;-64
2022/08/23 18:28:48;;;;;;;;;;;;;;;28.03;30.08;96783.88;4214044;28;5855;-63
2022/08/23 18:30:53;;;;;;;;;;;;;;;28.01;30.32;96780.69;4214888;28;5632;-63
2022/08/23 18:32:57;;;;;;;;;;;;;;;27.98;30.25;96782.09;4215113;28;5768;-62
2022/08/23 18:35:00;;;;;;;;;;;;;;;27.96;30.15;96791.63;4215749;28;5223;-62
2022/08/23 18:37:04;;;;;;;;;;;;;;;27.94;30.10;96791.16;4220578;28;5649;-62
2022/08/23 18:39:07;;;;;;;;;;;;;;;27.93;30.24;96797.69;4214968;28;5672;-62
2022/08/23 18:41:12;;;;;;;;;;;;;;;27.90;30.22;96804.53;4218387;28;5700;-62
2022/08/23 18:43:19;;;;;;;;;;;;;;;27.88;30.07;96797.81;4218002;28;5820;-63
2022/08/23 18:45:22;;;;;;;;;;;;;;;27.86;30.35;96803.53;4224867;28;5616;-63
2022/08/23 18:47:26;;;;;;;;;;;;;;;27.84;30.07;96803.84;4227099;28;5681;-63
2022/08/23 18:49:29;;;;;;;;;;;;;;;27.83;30.07;96801.41;4233256;28;5615;-63
2022/08/23 18:51:32;;;;;;;;;;;;;;;27.81;30.14;96812.59;4232969;28;5930;-63
2022/08/23 18:53:36;;;;;;;;;;;;;;;27.80;30.24;96807.47;4232007;28;5840;-63
2022/08/23 18:55:39;;;;;;;;;;;;;;;27.78;30.23;96805.06;4232304;27;5674;-62
2022/08/23 18:57:42;;;;;;;;;;;;;;;27.76;30.03;96814.63;4232438;28;5714;-62
2022/08/23 18:59:46;;;;;;;;;;;;;;;27.73;30.21;96813.28;4233028;28;5720;-63
2022/08/23 19:01:50;;;;;;;;;;;;;;;27.73;29.96;96820.63;4233392;28;7651;-62
2022/08/23 19:03:54;;;;;;;;;;;;;;;27.71;30.27;96820.94;4233311;28;5717;-62
2022/08/23 19:05:57;;;;;;;;;;;;;;;27.70;30.25;96813.09;4232867;28;5797;-62
2022/08/23 19:08:00;;;;;;;;;;;;;;;27.70;29.97;96823.97;4233342;28;5697;-62
2022/08/23 19:10:04;;;;;;;;;;;;;;;27.66;30.19;96823.78;4234585;28;5183;-62
2022/08/23 19:12:08;;;;;;;;;;;;;;;27.66;30.27;96836.56;4218233;28;5706;-62
2022/08/23 19:14:11;;;;;;;;;;;;;;;27.65;30.25;96832.22;4232515;28;5606;-63
2022/08/23 19:16:15;;;;;;;;;;;;;;;27.64;30.06;96841.47;4234962;28;5661;-62
2022/08/23 19:18:18;;;;;;;;;;;;;;;27.63;30.09;96834.38;4223647;28;5692;-62
2022/08/23 19:20:21;;;;;;;;;;;;;;;27.61;29.93;96839.31;4236555;28;5714;-63
2022/08/23 19:22:24;;;;;;;;;;;;;;;27.59;29.94;96838.81;4236084;28;5631;-62
2022/08/23 19:24:28;;;;;;;;;;;;;;;27.58;30.18;96843.44;4217924;28;5632;-62
2022/08/23 19:26:34;;;;;;;;;;;;;;;27.57;30.16;96850.00;4217535;28;7699;-62
2022/08/23 19:28:38;;;;;;;;;;;;;;;27.54;30.06;96840.53;4218402;28;5623;-62
2022/08/23 19:30:42;;;;;;;;;;;;;;;27.53;30.09;96841.66;4236262;28;5606;-62
2022/08/23 19:32:46;;;;;;;;;;;;;;;27.53;29.99;96846.28;4234150;28;5676;-62
2022/08/23 19:34:49;;;;;;;;;;;;;;;27.50;29.65;96852.28;4235666;28;6415;-62
2022/08/23 19:36:53;;;;;;;;;;;;;;;27.49;29.79;96858.81;4236022;28;5610;-63
2022/08/23 19:39:04;;;;;;;;;;;;;;;27.51;29.77;96853.91;4235746;28;5602;-62
2022/08/23 19:41:08;;;;;;;;;;;;;;;27.48;29.49;96855.31;4222599;28;6080;-62
2022/08/23 19:43:11;;;;;;;;;;;;;;;27.48;29.66;96863.44;4217742;28;5855;-63
2022/08/23 19:45:15;;;;;;;;;;;;;;;27.47;29.61;96852.91;4223383;28;5617;-63
2022/08/23 19:47:18;;;;;;;;;;;;;;;27.46;29.61;96856.72;4222688;27;5856;-63
2022/08/23 19:49:26;;;;;;;;;;;;;;;27.46;29.53;96860.22;4230459;27;5636;-65
2022/08/23 19:51:29;;;;;;;;;;;;;;;27.45;29.65;96855.09;4227181;27;5611;-63
2022/08/23 19:53:32;;;;;;;;;;;;;;;27.45;29.75;96860.53;4228811;27;5618;-62
2022/08/23 19:55:40;;;;;;;;;;;;;;;27.42;29.26;96863.84;4240138;27;5598;-62
2022/08/23 19:57:43;;;;;;;;;;;;;;;27.41;29.29;96870.38;4241997;27;5585;-63
2022/08/23 19:59:46;;;;;;;;;;;;;;;27.39;29.32;96873.38;4233550;28;5621;-62
2022/08/23 20:01:49;;;;;;;;;;;;;;;27.37;29.53;96870.16;4233280;27;5626;-63
2022/08/23 20:03:52;;;;;;;;;;;;;;;27.36;29.22;96863.13;4229968;27;5954;-63
2022/08/23 20:05:56;;;;;;;;;;;;;;;27.35;29.45;96871.56;4227001;28;5614;-63
2022/08/23 20:08:00;;;;;;;;;;;;;;;27.34;29.40;96867.25;4225421;28;6460;-63
2022/08/23 20:10:04;;;;;;;;;;;;;;;27.33;29.41;96874.59;4230305;28;5609;-64
2022/08/23 20:12:08;;;;;;;;;;;;;;;27.30;29.18;96866.25;4230766;28;6001;-63
2022/08/23 20:14:11;;;;;;;;;;;;;;;27.30;29.28;96863.53;4228981;28;5781;-63
2022/08/23 20:16:14;;;;;;;;;;;;;;;27.30;29.18;96863.53;4228437;28;5632;-63
2022/08/23 20:18:16;;;;;;;;;;;;;;;27.27;29.51;96871.16;4227904;28;5696;-62
2022/08/23 20:20:20;;;;;;;;;;;;;;;27.27;29.48;96879.28;4232403;28;5860;-63
2022/08/23 20:24:46;;;;;;;;;;;;;;;27.26;29.17;96883.13;4225040;28;5606;-62
2022/08/23 20:26:55;;;;;;;;;;;;;;;27.24;29.54;96877.19;4225105;28;5830;-62
2022/08/23 20:28:58;;;;;;;;;;;;;;;27.23;29.52;96877.47;4226091;28;5618;-63
2022/08/23 20:31:06;;;;;;;;;;;;;;;27.21;29.27;96874.28;4226407;28;5601;-63
2022/08/23 20:33:09;;;;;;;;;;;;;;;27.17;29.57;96874.03;4219115;28;5636;-63
2022/08/23 20:35:12;;;;;;;;;;;;;;;27.17;29.56;96865.09;4229218;28;6568;-63
2022/08/23 20:37:15;;;;;;;;;;;;;;;27.16;29.35;96867.00;4222987;28;5633;-63
2022/08/23 20:39:20;;;;;;;;;;;;;;;27.15;29.58;96870.00;4226514;28;5710;-63
2022/08/23 20:41:26;;;;;;;;;;;;;;;27.15;29.29;96864.59;4220595;28;5633;-64
2022/08/23 20:43:31;;;;;;;;;;;;;;;27.16;29.68;96860.78;4226377;28;5826;-63
2022/08/23 20:45:34;;;;;;;;;;;;;;;27.16;29.76;96867.00;4228462;28;5602;-63
2022/08/23 20:47:39;;;;;;;;;;;;;;;27.14;29.42;96871.94;4226989;28;5799;-63
2022/08/23 20:49:44;;;;;;;;;;;;;;;27.13;29.72;96864.88;4226798;28;6313;-63
2022/08/23 20:51:47;;;;;;;;;;;;;;;27.11;29.72;96871.72;4223542;28;5602;-63
2022/08/23 20:54:04;;;;;;;;;;;;;;;27.07;29.56;96871.53;4226016;28;5832;-63
2022/08/23 20:56:09;;;;;;;;;;;;;;;27.04;29.79;96871.28;4217472;28;7672;-63
2022/08/23 20:58:12;;;;;;;;;;;;;;;27.01;29.86;96859.09;4210012;28;5850;-63
2022/08/23 21:00:15;;;;;;;;;;;;;;;26.94;29.99;96870.31;4207572;28;5734;-63
2022/08/23 21:02:18;;;;;;;;;;;;;;;26.86;30.34;96864.78;4227190;28;5664;-62
2022/08/23 21:04:21;;;;;;;;;;;;;;;26.77;30.37;96871.97;4225372;28;5652;-62
2022/08/23 21:06:37;;;;;;;;;;;;;;;26.72;30.50;96866.63;4221539;28;5695;-63
2022/08/23 21:08:40;;;;;;;;;;;;;;;26.69;30.64;96855.25;4222726;28;5760;-63
2022/08/23 21:10:45;;;;;;;;;;;;;;;26.64;30.52;96851.84;4223277;28;5688;-63
2022/08/23 21:12:49;;;;;;;;;;;;;;;26.61;30.53;96874.91;4227490;28;5755;-64
2022/08/23 21:14:52;;;;;;;;;;;;;;;26.56;30.71;96866.84;4228188;28;5967;-64
2022/08/23 21:16:55;;;;;;;;;;;;;;;26.56;30.71;96866.84;4227324;28;5662;-62
2022/08/23 21:18:58;;;;;;;;;;;;;;;26.52;30.75;96871.25;4226992;28;5598;-63
2022/08/23 21:21:01;;;;;;;;;;;;;;;26.50;30.68;96870.72;4222438;28;5624;-63
2022/08/23 21:23:04;;;;;;;;;;;;;;;26.49;31.14;96860.19;4230689;28;5605;-63
2022/08/23 21:25:08;;;;;;;;;;;;;;;26.48;30.92;96864.78;4227654;28;5809;-63
2022/08/23 21:27:11;;;;;;;;;;;;;;;26.46;31.00;96866.19;4221175;28;5614;-64
2022/08/23 21:29:15;;;;;;;;;;;;;;;26.46;31.44;96861.56;4224321;28;5715;-65
2022/08/23 21:31:23;;;;;;;;;;;;;;;26.44;31.36;96862.97;4227474;28;5618;-63
2022/08/23 21:33:26;;;;;;;;;;;;;;;26.43;31.45;96867.59;4226046;28;5614;-63
2022/08/23 21:35:29;;;;;;;;;;;;;;;26.27;31.55;96868.84;4223700;28;5798;-63
2022/08/23 21:37:34;;;;;;;;;;;;;;;26.22;31.79;96860.81;4226996;28;5800;-63
2022/08/23 21:39:37;;;;;;;;;;;;;;;26.24;31.77;96864.03;4226467;28;5628;-63
2022/08/23 21:41:43;;;;;;;;;;;;;;;26.23;31.69;96855.09;4200046;28;5866;-64
2022/08/23 21:43:46;;;;;;;;;;;;;;;26.19;31.83;96866.81;4226319;28;5601;-64
2022/08/23 21:45:51;;;;;;;;;;;;;;;26.03;32.03;96863.47;4224119;28;6584;-64
2022/08/23 21:47:55;;;;;;;;;;;;;;;26.00;31.90;96859.47;4225161;28;5620;-63
2022/08/23 21:49:57;;;;;;;;;;;;;;;26.01;31.79;96862.97;4219581;28;5668;-63
2022/08/23 21:52:00;;;;;;;;;;;;;;;26.02;32.08;96861.88;4226778;28;5776;-64
2022/08/23 21:54:04;;;;;;;;;;;;;;;26.01;32.02;96866.47;4221993;28;5606;-65
2022/08/23 21:56:07;;;;;;;;;;;;;;;26.03;32.29;96868.91;4226249;28;5601;-64
2022/08/23 21:58:11;;;;;;;;;;;;;;;26.02;32.24;96870.81;4229332;28;5724;-64
2022/08/23 22:00:15;;;;;;;;;;;;;;;26.04;32.47;96871.31;4225565;28;6430;-64
2022/08/23 22:02:20;;;;;;;;;;;;;;;26.05;32.44;96867.53;4233094;28;5613;-63
2022/08/23 22:04:23;;;;;;;;;;;;;;;26.06;32.37;96874.56;4225119;28;5630;-63
2022/08/23 22:06:26;;;;;;;;;;;;;;;26.08;32.47;96871.56;4229184;28;5747;-63
2022/08/23 22:08:29;;;;;;;;;;;;;;;26.07;31.94;96859.13;4223204;28;5617;-63
2022/08/23 22:10:32;;;;;;;;;;;;;;;26.07;32.10;96872.66;4224999;28;6009;-63
2022/08/23 22:12:35;;;;;;;;;;;;;;;26.04;32.27;96867.81;4227082;28;5887;-63
2022/08/23 22:14:38;;;;;;;;;;;;;;;26.03;32.43;96858.88;4224756;28;6349;-62
2022/08/23 22:16:42;;;;;;;;;;;;;;;26.02;32.13;96867.28;4222759;28;5755;-63
2022/08/23 22:18:47;;;;;;;;;;;;;;;26.02;32.38;96859.16;4224172;28;5755;-63
2022/08/23 22:20:50;;;;;;;;;;;;;;;26.02;32.38;96861.88;4197179;28;5801;-63
2022/08/23 22:22:53;;;;;;;;;;;;;;;26.01;32.28;96861.06;4222789;28;5838;-63
2022/08/23 22:24:56;;;;;;;;;;;;;;;26.02;32.51;96867.28;4207575;28;5727;-63
2022/08/23 22:26:59;;;;;;;;;;;;;;;26.01;32.22;96868.38;4229211;28;5815;-62
2022/08/23 22:29:02;;;;;;;;;;;;;;;25.98;32.76;96861.66;4223113;28;5632;-62
2022/08/23 22:31:07;;;;;;;;;;;;;;;25.98;32.65;96867.06;4228078;28;5660;-62
2022/08/23 22:33:11;;;;;;;;;;;;;;;26.01;32.79;96865.69;4226966;28;5740;-62
2022/08/23 22:35:17;;;;;;;;;;;;;;;26.00;32.37;96859.47;4228014;28;5415;-63
2022/08/23 22:37:20;;;;;;;;;;;;;;;26.01;32.63;96861.06;4223246;28;5795;-62
2022/08/23 22:39:23;;;;;;;;;;;;;;;25.97;32.45;96865.47;4228681;28;5622;-63
2022/08/23 22:41:28;;;;;;;;;;;;;;;25.88;32.81;96861.78;4224514;28;5620;-63
2022/08/23 22:43:32;;;;;;;;;;;;;;;25.89;32.66;96871.50;4228822;28;5676;-63
2022/08/23 22:45:35;;;;;;;;;;;;;;;25.91;32.63;96863.91;4223605;28;5620;-63
2022/08/23 22:47:37;;;;;;;;;;;;;;;25.92;32.76;96865.50;4231308;28;6489;-63
2022/08/23 22:49:41;;;;;;;;;;;;;;;25.92;32.88;96864.72;4233684;28;5749;-63
2022/08/23 22:51:45;;;;;;;;;;;;;;;25.94;32.88;96874.19;4231680;28;5672;-63
2022/08/23 22:53:58;;;;;;;;;;;;;;;25.95;32.77;96878.50;4224743;28;5754;-63
2022/08/23 22:56:02;;;;;;;;;;;;;;;25.94;32.65;96866.06;4225014;28;5635;-63
2022/08/23 22:58:05;;;;;;;;;;;;;;;25.95;32.62;96867.66;4233150;28;5659;-63
2022/08/23 23:00:09;;;;;;;;;;;;;;;25.95;32.83;96877.69;4223106;28;6123;-63
2022/08/23 23:02:13;;;;;;;;;;;;;;;25.93;32.89;96875.25;4216415;28;6326;-63
2022/08/23 23:04:20;;;;;;;;;;;;;;;25.93;32.58;96875.25;4227146;28;5856;-63
2022/08/23 23:06:23;;;;;;;;;;;;;;;25.91;32.78;96872.03;4227137;28;5805;-63
2022/08/23 23:08:26;;;;;;;;;;;;;;;25.90;32.92;96873.13;4227865;28;5797;-63
2022/08/23 23:10:29;;;;;;;;;;;;;;;25.89;32.95;96871.50;4222767;28;5794;-63
2022/08/23 23:12:32;;;;;;;;;;;;;;;25.90;32.60;96870.41;4225487;28;5701;-63
2022/08/23 23:14:35;;;;;;;;;;;;;;;25.92;32.72;96879.06;4225012;28;5870;-63
2022/08/23 23:16:38;;;;;;;;;;;;;;;25.91;32.68;96868.50;4230684;28;6131;-63
2022/08/23 23:20:35;;;;;;;;;;;;;;;25.90;32.75;96867.72;4225478;28;5597;-63
2022/08/23 23:21:07;;;;;;;;;;;;;;;25.89;32.53;96868.00;4230322;28;5849;-63
2022/08/23 23:23:13;;;;;;;;;;;;;;;25.89;32.87;96866.09;4225303;28;5833;-63
2022/08/23 23:25:18;;;;;;;;;;;;;;;25.88;32.49;96860.97;4225290;28;6359;-63
2022/08/23 23:27:20;;;;;;;;;;;;;;;25.86;33.04;96863.97;4207020;28;5851;-63
2022/08/23 23:29:25;;;;;;;;;;;;;;;25.86;32.62;96855.03;4221257;28;5624;-63
2022/08/23 23:31:28;;;;;;;;;;;;;;;25.85;32.93;96856.94;4224301;28;5734;-63
2022/08/23 23:33:33;;;;;;;;;;;;;;;25.85;32.55;96862.38;4228137;28;5739;-63
2022/08/23 23:35:36;;;;;;;;;;;;;;;25.86;32.53;96860.47;4230720;28;6427;-63
2022/08/23 23:37:39;;;;;;;;;;;;;;;25.86;32.48;96857.75;4207174;28;6446;-63
2022/08/23 23:39:42;;;;;;;;;;;;;;;25.84;32.71;96860.75;4225870;28;5791;-63
2022/08/23 23:41:46;;;;;;;;;;;;;;;25.82;32.69;96852.09;4227539;28;5605;-64
2022/08/23 23:43:49;;;;;;;;;;;;;;;25.80;33.01;96863.22;4227127;28;5702;-63
2022/08/23 23:45:52;;;;;;;;;;;;;;;25.78;32.87;96859.19;4228966;28;5624;-63
2022/08/23 23:47:55;;;;;;;;;;;;;;;25.77;33.11;96865.69;4226335;28;5522;-64
2022/08/23 23:49:58;;;;;;;;;;;;;;;25.73;33.02;96864.69;4225437;28;5713;-64
2022/08/23 23:52:03;;;;;;;;;;;;;;;25.74;32.91;96864.38;4221733;28;5668;-63
2022/08/23 23:54:06;;;;;;;;;;;;;;;25.72;33.16;96868.47;4200897;28;5746;-63
2022/08/23 23:56:12;;;;;;;;;;;;;;;25.70;33.13;96870.66;4223521;28;5631;-63
2022/08/23 23:58:16;;;;;;;;;;;;;;;25.66;33.21;96866.88;4224217;28;5840;-63
